createdAt,value
2023-01-31T00:00:50.810Z,2.41
2023-01-31T00:03:26.705Z,2.38
2023-01-31T00:05:56.116Z,2.35
2023-01-31T00:08:25.540Z,2.36
2023-01-31T00:10:54.735Z,2.34
2023-01-31T00:13:23.982Z,2.34
2023-01-31T00:15:55.863Z,2.31
2023-01-31T00:18:25.504Z,2.29
2023-01-31T00:20:54.513Z,2.24
2023-01-31T00:23:23.874Z,2.18
2023-01-31T00:25:52.867Z,2.11
2023-01-31T00:28:22.293Z,2.06
2023-01-31T00:30:52.363Z,2.08
2023-01-31T00:33:22.835Z,2.08
2023-01-31T00:35:52.177Z,2.10
2023-01-31T00:38:21.353Z,2.10
2023-01-31T00:40:54.200Z,2.08
2023-01-31T00:43:23.267Z,2.07
2023-01-31T00:45:52.966Z,2.07
2023-01-31T00:48:22.943Z,2.06
2023-01-31T00:50:52.245Z,2.06
2023-01-31T00:53:23.346Z,2.05
2023-01-31T00:55:54.020Z,2.04
2023-01-31T00:58:24.185Z,2.08
2023-01-31T01:00:53.291Z,2.12
2023-01-31T01:03:22.787Z,2.19
2023-01-31T01:05:52.620Z,2.24
2023-01-31T01:08:21.968Z,2.29
2023-01-31T01:10:51.179Z,2.32
2023-01-31T01:13:21.081Z,2.35
2023-01-31T01:15:50.386Z,2.37
2023-01-31T01:18:20.826Z,2.39
2023-01-31T01:20:49.776Z,2.43
2023-01-31T01:23:19.401Z,2.48
2023-01-31T01:25:49.805Z,2.54
2023-01-31T01:28:18.915Z,2.60
2023-01-31T01:30:48.458Z,2.65
2023-01-31T01:33:18.372Z,2.66
2023-01-31T01:35:47.431Z,2.68
2023-01-31T01:38:17.276Z,2.68
2023-01-31T01:40:45.975Z,2.69
2023-01-31T01:43:15.243Z,2.70
2023-01-31T01:45:45.095Z,2.70
2023-01-31T01:48:17.982Z,2.70
2023-01-31T01:50:49.335Z,2.68
2023-01-31T01:53:24.083Z,2.70
2023-01-31T01:56:02.350Z,2.75
2023-01-31T01:58:38.852Z,2.80
2023-01-31T02:01:09.771Z,2.81
2023-01-31T02:03:40.456Z,2.83
2023-01-31T02:06:08.471Z,2.82
2023-01-31T02:08:41.042Z,2.80
2023-01-31T02:11:17.940Z,2.78
2023-01-31T02:13:49.980Z,2.74
2023-01-31T02:16:19.406Z,2.73
2023-01-31T02:18:49.720Z,2.72
2023-01-31T02:22:10.457Z,2.71
2023-01-31T02:25:14.772Z,2.66
2023-01-31T02:28:06.918Z,2.63
2023-01-31T02:31:13.806Z,2.59
2023-01-31T02:33:48.019Z,2.57
2023-01-31T02:36:29.259Z,2.55
2023-01-31T02:39:14.133Z,2.57
2023-01-31T02:41:50.272Z,2.61
2023-01-31T02:44:44.877Z,2.64
2023-01-31T02:47:27.885Z,2.67
2023-01-31T02:50:02.753Z,2.67
2023-01-31T02:52:40.676Z,2.66
2023-01-31T02:55:37.069Z,2.63
2023-01-31T02:58:09.984Z,2.63
2023-01-31T03:00:42.028Z,2.61
2023-01-31T03:03:19.404Z,2.60
2023-01-31T03:06:35.198Z,2.57
2023-01-31T03:09:11.510Z,2.51
2023-01-31T03:11:49.316Z,2.47
2023-01-31T03:14:30.666Z,2.41
2023-01-31T03:17:25.367Z,2.37
2023-01-31T03:20:03.889Z,2.35
2023-01-31T03:22:37.596Z,2.30
2023-01-31T03:25:11.216Z,2.27
2023-01-31T03:27:43.465Z,2.21
2023-01-31T03:30:18.900Z,2.14
2023-01-31T03:32:53.944Z,2.08
2023-01-31T03:35:28.134Z,2.03
2023-01-31T03:38:07.153Z,1.95
2023-01-31T03:40:41.507Z,1.89
2023-01-31T03:43:16.967Z,1.85
2023-01-31T03:45:51.601Z,1.80
2023-01-31T03:48:27.141Z,1.78
2023-01-31T03:51:00.099Z,1.75
2023-01-31T03:53:32.850Z,1.75
2023-01-31T03:56:06.188Z,1.75
2023-01-31T03:58:43.547Z,1.76
2023-01-31T04:01:15.581Z,1.76
2023-01-31T04:03:47.802Z,1.76
2023-01-31T04:06:17.056Z,1.76
2023-01-31T04:08:47.135Z,1.76
2023-01-31T04:11:24.530Z,1.77
2023-01-31T04:13:54.033Z,1.82
2023-01-31T04:16:23.411Z,1.88
2023-01-31T04:18:52.651Z,1.91
2023-01-31T04:21:22.081Z,1.94
2023-01-31T04:23:51.090Z,1.95
2023-01-31T04:26:20.407Z,1.96
2023-01-31T04:28:49.837Z,1.96
2023-01-31T04:31:19.092Z,1.95
2023-01-31T04:33:48.002Z,1.94
2023-01-31T04:36:17.134Z,1.92
2023-01-31T04:38:46.374Z,1.92
2023-01-31T04:41:15.362Z,1.92
2023-01-31T04:43:45.791Z,1.90
2023-01-31T04:46:15.201Z,1.91
2023-01-31T04:48:44.849Z,1.96
2023-01-31T04:51:13.992Z,2.01
2023-01-31T04:53:45.865Z,2.04
2023-01-31T04:56:15.197Z,2.07
2023-01-31T04:58:44.259Z,2.09
2023-01-31T05:01:13.281Z,2.09
2023-01-31T05:03:42.582Z,2.10
2023-01-31T05:06:11.478Z,2.11
2023-01-31T05:08:40.513Z,2.10
2023-01-31T05:11:10.182Z,2.09
2023-01-31T05:13:39.880Z,2.08
2023-01-31T05:16:10.714Z,2.08
2023-01-31T05:18:40.142Z,2.05
2023-01-31T05:21:11.588Z,2.05
2023-01-31T05:23:41.004Z,2.04
2023-01-31T05:26:10.333Z,2.02
2023-01-31T05:28:41.342Z,2.01
2023-01-31T05:31:13.021Z,2.04
2023-01-31T05:33:42.591Z,2.10
2023-01-31T05:36:11.733Z,2.15
2023-01-31T05:38:41.749Z,2.19
2023-01-31T05:41:10.258Z,2.22
2023-01-31T05:43:39.325Z,2.20
2023-01-31T05:46:08.928Z,2.19
2023-01-31T05:48:37.752Z,2.18
2023-01-31T05:51:07.036Z,2.17
2023-01-31T05:53:36.264Z,2.17
2023-01-31T05:56:06.139Z,2.14
2023-01-31T05:58:35.443Z,2.12
2023-01-31T06:01:04.429Z,2.08
2023-01-31T06:03:33.618Z,2.07
2023-01-31T06:06:04.820Z,2.05
2023-01-31T06:08:34.589Z,2.05
2023-01-31T06:11:04.856Z,2.05
2023-01-31T06:13:33.153Z,2.04
2023-01-31T06:16:02.619Z,2.02
2023-01-31T06:18:32.386Z,2.01
2023-01-31T06:21:02.210Z,2.00
2023-01-31T06:23:31.191Z,2.02
2023-01-31T06:26:00.403Z,2.06
2023-01-31T06:28:30.810Z,2.10
2023-01-31T06:31:06.163Z,2.12
2023-01-31T06:33:46.189Z,2.14
2023-01-31T06:36:19.205Z,2.13
2023-01-31T06:38:52.670Z,2.13
2023-01-31T06:41:22.812Z,2.13
2023-01-31T06:43:51.241Z,2.10
2023-01-31T06:46:20.534Z,2.09
2023-01-31T06:48:49.918Z,2.07
2023-01-31T06:51:19.210Z,2.06
2023-01-31T06:53:50.771Z,2.04
2023-01-31T06:56:19.820Z,2.04
2023-01-31T06:58:49.025Z,2.04
2023-01-31T07:01:18.409Z,2.06
2023-01-31T07:03:48.204Z,2.09
2023-01-31T07:06:20.044Z,2.13
2023-01-31T07:08:49.751Z,2.16
2023-01-31T07:11:18.744Z,2.19
2023-01-31T07:13:47.673Z,2.21
2023-01-31T07:16:18.291Z,2.21
2023-01-31T07:18:47.093Z,2.21
2023-01-31T07:21:16.973Z,2.22
2023-01-31T07:23:46.277Z,2.21
2023-01-31T07:26:15.427Z,2.20
2023-01-31T07:28:44.366Z,2.19
2023-01-31T07:31:15.063Z,2.17
2023-01-31T07:33:44.488Z,2.19
2023-01-31T07:36:20.756Z,2.17
2023-01-31T07:38:55.500Z,2.22
2023-01-31T07:41:25.947Z,2.24
2023-01-31T07:43:54.309Z,2.28
2023-01-31T07:46:23.964Z,2.32
2023-01-31T07:48:54.252Z,2.34
2023-01-31T07:51:23.723Z,2.37
2023-01-31T07:53:53.028Z,2.40
2023-01-31T07:56:23.095Z,2.40
2023-01-31T07:58:52.793Z,2.40
2023-01-31T08:01:43.170Z,2.44
2023-01-31T08:04:21.720Z,2.45
2023-01-31T08:06:54.186Z,2.44
2023-01-31T08:09:24.547Z,2.46
2023-01-31T08:11:54.405Z,2.44
2023-01-31T08:14:24.926Z,2.47
2023-01-31T08:16:54.226Z,2.48
2023-01-31T08:19:23.417Z,2.50
2023-01-31T08:21:53.070Z,2.57
2023-01-31T08:24:22.531Z,2.60
2023-01-31T08:26:51.598Z,2.61
2023-01-31T08:29:25.386Z,2.64
2023-01-31T08:31:54.943Z,2.64
2023-01-31T08:34:24.441Z,2.67
2023-01-31T08:36:53.442Z,2.69
2023-01-31T08:39:23.523Z,2.68
2023-01-31T08:41:53.455Z,2.70
2023-01-31T08:44:24.767Z,2.65
2023-01-31T08:46:54.614Z,2.66
2023-01-31T08:49:24.061Z,2.70
2023-01-31T08:51:53.203Z,2.77
2023-01-31T08:54:22.757Z,2.81
2023-01-31T08:57:03.600Z,2.77
2023-01-31T08:59:37.025Z,2.76
2023-01-31T09:02:06.978Z,2.79
2023-01-31T09:04:36.131Z,2.82
2023-01-31T09:07:05.634Z,2.83
2023-01-31T09:09:35.235Z,2.86
2023-01-31T09:12:06.491Z,2.88
2023-01-31T09:14:35.392Z,2.86
2023-01-31T09:17:07.724Z,2.87
2023-01-31T09:19:36.876Z,2.87
2023-01-31T09:22:06.014Z,2.95
2023-01-31T09:24:38.795Z,3.02
2023-01-31T09:27:07.848Z,3.12
2023-01-31T09:29:37.911Z,3.18
2023-01-31T09:32:07.724Z,3.23
2023-01-31T09:34:37.579Z,3.21
2023-01-31T09:37:07.553Z,3.24
2023-01-31T09:39:37.346Z,3.27
2023-01-31T09:42:18.449Z,3.31
2023-01-31T09:44:57.538Z,3.37
2023-01-31T09:47:30.163Z,3.47
2023-01-31T09:50:04.683Z,3.54
2023-01-31T09:52:34.273Z,3.61
2023-01-31T09:55:20.945Z,3.69
2023-01-31T09:57:58.990Z,3.71
2023-01-31T10:00:33.086Z,3.76
2023-01-31T10:03:32.965Z,3.80
2023-01-31T10:06:09.071Z,3.86
2023-01-31T10:08:47.913Z,3.87
2023-01-31T10:11:32.982Z,3.92
2023-01-31T10:14:14.042Z,3.95
2023-01-31T10:16:50.591Z,3.91
2023-01-31T10:19:26.955Z,3.93
2023-01-31T10:22:00.963Z,3.92
2023-01-31T10:24:32.656Z,3.91
2023-01-31T10:27:17.784Z,3.91
2023-01-31T10:29:50.884Z,3.90
2023-01-31T10:32:28.987Z,3.93
2023-01-31T10:35:02.495Z,3.98
2023-01-31T10:37:38.878Z,4.13
2023-01-31T10:40:16.657Z,4.18
2023-01-31T10:42:52.145Z,4.14
2023-01-31T10:45:30.830Z,4.08
2023-01-31T10:48:14.088Z,4.01
2023-01-31T10:50:55.067Z,3.96
2023-01-31T10:53:53.195Z,3.94
2023-01-31T10:56:29.982Z,3.97
2023-01-31T10:59:00.715Z,4.03
2023-01-31T11:01:30.119Z,4.10
2023-01-31T11:04:00.462Z,4.20
2023-01-31T11:06:31.082Z,4.32
2023-01-31T11:09:04.155Z,4.46
2023-01-31T11:11:52.136Z,4.53
2023-01-31T11:14:22.360Z,4.58
2023-01-31T11:17:00.739Z,4.57
2023-01-31T11:19:35.987Z,4.52
2023-01-31T11:22:06.630Z,4.47
2023-01-31T11:24:42.199Z,4.51
2023-01-31T11:27:26.419Z,4.64
2023-01-31T11:29:59.958Z,4.68
2023-01-31T11:32:35.234Z,4.53
2023-01-31T11:35:07.944Z,4.38
2023-01-31T11:37:53.650Z,4.24
2023-01-31T11:40:29.992Z,4.03
2023-01-31T11:43:02.071Z,3.94
2023-01-31T11:45:34.643Z,3.92
2023-01-31T11:48:11.644Z,3.91
2023-01-31T11:50:44.529Z,3.91
2023-01-31T11:53:21.803Z,3.93
2023-01-31T11:55:54.803Z,3.97
2023-01-31T11:58:30.979Z,4.04
2023-01-31T12:01:01.583Z,4.04
2023-01-31T12:03:34.061Z,4.04
2023-01-31T12:06:06.015Z,4.10
2023-01-31T12:08:38.112Z,4.12
2023-01-31T12:11:25.518Z,4.11
2023-01-31T12:14:03.977Z,4.12
2023-01-31T12:16:36.247Z,4.09
2023-01-31T12:19:21.164Z,4.06
2023-01-31T12:22:04.185Z,3.96
2023-01-31T12:24:44.439Z,3.93
2023-01-31T12:27:28.209Z,3.90
2023-01-31T12:30:27.291Z,3.87
2023-01-31T12:33:16.769Z,3.86
2023-01-31T12:36:11.908Z,3.90
2023-01-31T12:38:53.914Z,3.90
2023-01-31T12:41:32.363Z,3.86
2023-01-31T12:44:23.608Z,3.84
2023-01-31T12:47:17.917Z,3.80
2023-01-31T12:49:59.309Z,3.80
2023-01-31T12:52:41.391Z,3.80
2023-01-31T12:55:26.246Z,3.75
2023-01-31T12:58:10.585Z,3.67
2023-01-31T13:00:55.904Z,3.52
2023-01-31T13:03:49.347Z,3.41
2023-01-31T13:06:24.705Z,3.30
2023-01-31T13:09:07.670Z,3.17
2023-01-31T13:11:44.171Z,3.06
2023-01-31T13:14:21.615Z,2.98
2023-01-31T13:16:56.725Z,2.92
2023-01-31T13:19:32.975Z,2.87
2023-01-31T13:22:03.897Z,2.84
2023-01-31T13:24:38.049Z,2.86
2023-01-31T13:27:15.540Z,2.92
2023-01-31T13:29:51.501Z,3.02
2023-01-31T13:32:28.575Z,3.10
2023-01-31T13:35:02.257Z,3.13
2023-01-31T13:37:39.192Z,3.13
2023-01-31T13:40:20.446Z,3.12
2023-01-31T13:42:52.823Z,3.14
2023-01-31T13:45:30.223Z,3.13
2023-01-31T13:48:04.758Z,3.12
2023-01-31T13:50:41.857Z,3.10
2023-01-31T13:53:17.458Z,3.10
2023-01-31T13:55:52.527Z,3.08
2023-01-31T13:58:28.479Z,3.05
2023-01-31T14:01:04.088Z,3.06
2023-01-31T14:04:11.274Z,3.04
2023-01-31T14:07:23.615Z,3.05
2023-01-31T14:10:28.770Z,3.03
2023-01-31T14:13:38.070Z,2.96
2023-01-31T14:16:38.291Z,2.94
2023-01-31T14:19:46.518Z,2.92
2023-01-31T14:22:18.583Z,2.85
2023-01-31T14:25:07.128Z,2.82
2023-01-31T14:27:39.897Z,2.83
2023-01-31T14:30:30.259Z,2.87
2023-01-31T14:33:06.151Z,2.92
2023-01-31T14:35:57.055Z,2.94
2023-01-31T14:38:44.542Z,2.98
2023-01-31T14:41:25.970Z,2.98
2023-01-31T14:44:12.477Z,2.97
2023-01-31T14:47:07.960Z,2.92
2023-01-31T14:50:26.973Z,2.90
2023-01-31T14:53:15.417Z,2.89
2023-01-31T14:55:58.744Z,2.88
2023-01-31T14:58:33.839Z,2.91
2023-01-31T15:01:10.196Z,2.90
2023-01-31T15:03:49.319Z,2.87
2023-01-31T15:06:25.132Z,2.83
2023-01-31T15:09:18.647Z,2.81
2023-01-31T15:11:50.062Z,2.77
2023-01-31T15:14:34.602Z,2.73
2023-01-31T15:17:27.351Z,2.73
2023-01-31T15:20:14.821Z,2.76
2023-01-31T15:22:46.036Z,2.79
2023-01-31T15:25:26.468Z,2.80
2023-01-31T15:27:57.434Z,2.78
2023-01-31T15:30:30.134Z,2.78
2023-01-31T15:33:05.991Z,2.78
2023-01-31T15:35:45.106Z,2.76
2023-01-31T15:38:27.100Z,2.77
2023-01-31T15:41:23.653Z,2.80
2023-01-31T15:43:54.287Z,2.83
2023-01-31T15:46:27.830Z,2.87
2023-01-31T15:48:58.229Z,2.89
2023-01-31T15:51:28.490Z,2.92
2023-01-31T15:54:06.392Z,2.93
2023-01-31T15:56:40.303Z,2.94
2023-01-31T15:59:13.682Z,2.92
2023-01-31T16:01:50.954Z,2.90
2023-01-31T16:04:20.328Z,2.89
2023-01-31T16:06:50.657Z,2.88
2023-01-31T16:09:26.180Z,2.85
2023-01-31T16:11:56.325Z,2.88
2023-01-31T16:14:26.539Z,2.90
2023-01-31T16:16:57.852Z,2.92
2023-01-31T16:19:30.784Z,2.94
2023-01-31T16:22:00.690Z,2.93
2023-01-31T16:24:31.492Z,2.94
2023-01-31T16:27:06.600Z,2.91
2023-01-31T16:29:41.207Z,2.88
2023-01-31T16:32:19.714Z,2.92
2023-01-31T16:34:55.907Z,2.98
2023-01-31T16:37:35.061Z,3.07
2023-01-31T16:40:19.868Z,3.10
2023-01-31T16:42:49.189Z,3.09
2023-01-31T16:45:32.966Z,3.05
2023-01-31T16:48:21.965Z,2.97
2023-01-31T16:50:53.638Z,2.86
2023-01-31T16:53:29.045Z,2.82
2023-01-31T16:56:22.508Z,2.74
2023-01-31T16:58:56.563Z,2.71
2023-01-31T17:01:29.279Z,2.70
2023-01-31T17:04:06.710Z,2.59
2023-01-31T17:06:36.419Z,2.47
2023-01-31T17:09:07.331Z,2.42
2023-01-31T17:11:43.709Z,2.40
2023-01-31T17:14:13.209Z,2.39
2023-01-31T17:16:42.198Z,2.35
2023-01-31T17:19:12.005Z,2.31
2023-01-31T17:21:42.940Z,2.29
2023-01-31T17:24:18.116Z,2.27
2023-01-31T17:26:47.394Z,2.27
2023-01-31T17:29:20.892Z,2.23
2023-01-31T17:31:50.380Z,2.17
2023-01-31T17:34:20.166Z,2.11
2023-01-31T17:36:49.446Z,2.10
2023-01-31T17:39:18.769Z,2.08
2023-01-31T17:41:47.765Z,2.03
2023-01-31T17:44:16.869Z,1.99
2023-01-31T17:46:45.739Z,1.98
2023-01-31T17:49:14.588Z,1.96
2023-01-31T17:51:44.998Z,1.98
2023-01-31T17:54:15.114Z,1.99
2023-01-31T17:56:44.226Z,2.00
2023-01-31T17:59:25.299Z,1.99
2023-01-31T18:01:56.111Z,1.98
2023-01-31T18:04:25.249Z,1.98
2023-01-31T18:06:54.493Z,2.00
2023-01-31T18:09:25.257Z,2.05
2023-01-31T18:11:54.332Z,2.07
2023-01-31T18:14:23.688Z,2.09
2023-01-31T18:16:53.584Z,2.07
2023-01-31T18:19:23.614Z,2.08
2023-01-31T18:21:55.188Z,2.09
2023-01-31T18:24:25.365Z,2.12
2023-01-31T18:27:00.236Z,2.12
2023-01-31T18:29:29.731Z,2.09
2023-01-31T18:32:02.869Z,2.04
2023-01-31T18:34:33.724Z,2.04
2023-01-31T18:37:05.380Z,2.06
2023-01-31T18:39:35.284Z,2.11
2023-01-31T18:42:05.521Z,2.12
2023-01-31T18:44:36.278Z,2.15
2023-01-31T18:47:06.151Z,2.15
2023-01-31T18:49:35.037Z,2.17
2023-01-31T18:52:06.316Z,2.18
2023-01-31T18:54:37.043Z,2.20
2023-01-31T18:57:07.356Z,2.19
2023-01-31T18:59:36.347Z,2.18
2023-01-31T19:02:06.066Z,2.17
2023-01-31T19:04:35.693Z,2.19
2023-01-31T19:07:06.112Z,2.20
2023-01-31T19:09:35.411Z,2.20
2023-01-31T19:12:05.151Z,2.20
2023-01-31T19:14:34.120Z,2.18
2023-01-31T19:17:03.454Z,2.18
2023-01-31T19:19:34.185Z,2.19
2023-01-31T19:22:03.564Z,2.19
2023-01-31T19:24:32.861Z,2.17
2023-01-31T19:27:02.589Z,2.17
2023-01-31T19:29:31.774Z,2.16
2023-01-31T19:32:01.267Z,2.16
2023-01-31T19:34:31.078Z,2.19
2023-01-31T19:37:00.172Z,2.22
2023-01-31T19:39:30.030Z,2.24
2023-01-31T19:42:01.457Z,2.25
2023-01-31T19:44:31.580Z,2.26
2023-01-31T19:47:00.349Z,2.26
2023-01-31T19:49:30.501Z,2.28
2023-01-31T19:51:59.814Z,2.31
2023-01-31T19:54:28.864Z,2.33
2023-01-31T19:56:58.849Z,2.35
2023-01-31T19:59:28.493Z,2.36
2023-01-31T20:01:57.819Z,2.37
2023-01-31T20:04:27.255Z,2.37
2023-01-31T20:06:56.446Z,2.39
2023-01-31T20:09:25.490Z,2.39
2023-01-31T20:11:56.276Z,2.38
2023-01-31T20:14:25.251Z,2.36
2023-01-31T20:16:54.258Z,2.34
2023-01-31T20:19:23.571Z,2.35
2023-01-31T20:21:54.038Z,2.36
2023-01-31T20:24:23.975Z,2.39
2023-01-31T20:26:52.540Z,2.40
2023-01-31T20:29:21.679Z,2.40
2023-01-31T20:31:51.157Z,2.39
2023-01-31T20:34:20.458Z,2.36
2023-01-31T20:36:49.559Z,2.38
2023-01-31T20:39:18.771Z,2.41
2023-01-31T20:41:47.787Z,2.45
2023-01-31T20:44:17.097Z,2.48
2023-01-31T20:46:47.164Z,2.49
2023-01-31T20:49:16.573Z,2.50
2023-01-31T20:51:45.707Z,2.52
2023-01-31T20:54:15.290Z,2.52
2023-01-31T20:56:44.695Z,2.54
2023-01-31T20:59:14.153Z,2.57
2023-01-31T21:01:43.882Z,2.62
2023-01-31T21:04:13.258Z,2.72
2023-01-31T21:06:42.648Z,2.80
2023-01-31T21:09:12.269Z,2.86
2023-01-31T21:11:42.020Z,2.85
2023-01-31T21:14:11.256Z,2.88
2023-01-31T21:16:40.762Z,2.91
2023-01-31T21:19:10.025Z,2.90
2023-01-31T21:21:39.061Z,2.88
2023-01-31T21:24:09.964Z,2.86
2023-01-31T21:26:39.324Z,2.85
2023-01-31T21:29:08.576Z,2.87
2023-01-31T21:31:38.112Z,2.91
2023-01-31T21:34:07.478Z,2.96
2023-01-31T21:36:36.695Z,3.01
2023-01-31T21:39:06.212Z,3.06
2023-01-31T21:41:53.835Z,3.10
2023-01-31T21:44:23.339Z,3.09
2023-01-31T21:46:52.424Z,3.07
2023-01-31T21:49:22.537Z,3.03
2023-01-31T21:51:51.770Z,2.99
2023-01-31T21:54:22.242Z,2.95
2023-01-31T21:56:51.604Z,2.92
2023-01-31T21:59:21.383Z,2.94
2023-01-31T22:01:51.385Z,2.92
2023-01-31T22:04:23.882Z,2.94
2023-01-31T22:06:55.014Z,2.98
2023-01-31T22:09:25.720Z,3.02
2023-01-31T22:11:54.947Z,3.05
2023-01-31T22:14:24.261Z,3.09
2023-01-31T22:16:54.683Z,3.13
2023-01-31T22:19:24.090Z,3.15
2023-01-31T22:21:53.339Z,3.18
2023-01-31T22:24:22.391Z,3.19
2023-01-31T22:26:52.138Z,3.21
2023-01-31T22:29:21.114Z,3.24
2023-01-31T22:31:54.424Z,3.25
2023-01-31T22:34:23.592Z,3.25
2023-01-31T22:36:52.616Z,3.23
2023-01-31T22:39:24.637Z,3.16
2023-01-31T22:41:53.843Z,3.09
2023-01-31T22:44:23.141Z,3.07
2023-01-31T22:46:52.653Z,3.08
2023-01-31T22:49:21.786Z,3.10
2023-01-31T22:51:52.189Z,3.13
2023-01-31T22:54:21.615Z,3.12
2023-01-31T22:56:51.272Z,3.14
2023-01-31T22:59:20.587Z,3.12
2023-01-31T23:01:50.296Z,3.17
2023-01-31T23:04:19.264Z,3.27
2023-01-31T23:06:48.899Z,3.32
2023-01-31T23:09:18.812Z,3.34
2023-01-31T23:11:51.009Z,3.37
2023-01-31T23:14:20.402Z,3.41
2023-01-31T23:17:08.338Z,3.47
2023-01-31T23:19:38.133Z,3.53
2023-01-31T23:22:07.230Z,3.56
2023-01-31T23:24:36.627Z,3.60
2023-01-31T23:27:07.044Z,3.60
2023-01-31T23:29:36.401Z,3.59
2023-01-31T23:32:05.987Z,3.62
2023-01-31T23:34:35.264Z,3.64
2023-01-31T23:37:05.073Z,3.68
2023-01-31T23:39:34.909Z,3.72
2023-01-31T23:42:04.305Z,3.73
2023-01-31T23:44:33.491Z,3.71
2023-01-31T23:47:03.635Z,3.70
2023-01-31T23:49:32.598Z,3.69
2023-01-31T23:52:01.850Z,3.66
2023-01-31T23:54:30.834Z,3.66
2023-01-31T23:57:00.416Z,3.67
2023-01-31T23:59:30.122Z,3.66
